createdAt,value
2018-10-16T00:04:31.746Z,21.03
2018-10-16T00:07:10.199Z,21.03
2018-10-16T00:09:47.356Z,22.67
2018-10-16T00:12:25.590Z,20.20
2018-10-16T00:15:03.759Z,23.23
2018-10-16T00:17:37.938Z,19.07
2018-10-16T00:20:12.272Z,21.87
2018-10-16T00:22:47.445Z,19.10
2018-10-16T00:25:21.851Z,20.43
2018-10-16T00:27:51.270Z,22.87
2018-10-16T00:30:20.590Z,21.20
2018-10-16T00:32:49.920Z,21.23
2018-10-16T00:35:19.270Z,22.03
2018-10-16T00:37:48.637Z,17.23
2018-10-16T00:40:17.942Z,23.60
2018-10-16T00:42:47.244Z,21.67
2018-10-16T00:45:16.574Z,20.60
2018-10-16T00:47:45.886Z,22.13
2018-10-16T00:50:15.215Z,19.43
2018-10-16T00:52:44.523Z,20.80
2018-10-16T00:55:13.854Z,18.20
2018-10-16T00:57:43.177Z,19.17
2018-10-16T01:00:13.419Z,20.35
2018-10-16T01:02:43.654Z,21.97
2018-10-16T01:05:13.701Z,23.67
2018-10-16T01:07:43.458Z,22.43
2018-10-16T01:10:13.647Z,17.97
2018-10-16T01:12:42.948Z,21.60
2018-10-16T01:15:12.866Z,18.53
2018-10-16T01:17:42.218Z,20.93
2018-10-16T01:20:13.198Z,19.80
2018-10-16T01:22:42.984Z,20.17
2018-10-16T01:25:13.137Z,24.00
2018-10-16T01:27:42.495Z,23.07
2018-10-16T01:30:11.819Z,19.40
2018-10-16T01:32:41.141Z,23.93
2018-10-16T01:35:11.615Z,25.60
2018-10-16T01:37:41.264Z,24.97
2018-10-16T01:40:11.489Z,26.77
2018-10-16T01:42:40.819Z,27.83
2018-10-16T01:45:10.867Z,26.40
2018-10-16T01:47:40.202Z,24.47
2018-10-16T01:50:15.333Z,25.47
2018-10-16T01:52:44.651Z,26.70
2018-10-16T01:55:13.980Z,24.30
2018-10-16T01:57:43.312Z,25.63
2018-10-16T02:00:12.634Z,27.50
2018-10-16T02:02:42.032Z,25.07
2018-10-16T02:05:11.332Z,26.37
2018-10-16T02:07:40.700Z,27.03
2018-10-16T02:10:10.385Z,25.37
2018-10-16T02:12:40.025Z,29.33
2018-10-16T02:15:10.067Z,29.33
2018-10-16T02:17:40.336Z,27.70
2018-10-16T02:20:10.296Z,29.33
2018-10-16T02:22:40.315Z,29.07
2018-10-16T02:25:10.766Z,28.57
2018-10-16T02:27:40.991Z,30.07
2018-10-16T02:30:10.964Z,29.30
2018-10-16T02:32:40.299Z,28.03
2018-10-16T02:35:10.629Z,26.57
2018-10-16T02:37:40.003Z,28.77
2018-10-16T02:40:10.326Z,25.93
2018-10-16T02:42:40.356Z,29.90
2018-10-16T02:45:10.974Z,30.33
2018-10-16T02:47:40.568Z,32.00
2018-10-16T02:50:10.809Z,29.20
2018-10-16T02:52:40.271Z,29.87
2018-10-16T02:55:10.451Z,32.67
2018-10-16T02:57:39.965Z,32.57
2018-10-16T03:00:09.431Z,33.43
2018-10-16T03:02:38.746Z,31.50
2018-10-16T03:05:08.059Z,32.03
2018-10-16T03:07:37.394Z,32.17
2018-10-16T03:10:06.719Z,31.87
2018-10-16T03:12:36.148Z,30.77
2018-10-16T03:15:09.045Z,32.77
2018-10-16T03:17:38.494Z,32.77
2018-10-16T03:20:08.297Z,32.37
2018-10-16T03:22:38.179Z,34.60
2018-10-16T03:25:09.499Z,32.43
2018-10-16T03:30:17.318Z,35.10
2018-10-16T03:32:46.625Z,33.23
2018-10-16T03:35:15.943Z,33.67
2018-10-16T03:37:45.253Z,34.47
2018-10-16T03:40:14.653Z,34.13
2018-10-16T03:42:43.998Z,32.87
2018-10-16T03:45:13.750Z,34.67
2018-10-16T03:47:43.227Z,33.60
2018-10-16T03:50:12.447Z,34.97
2018-10-16T03:52:41.770Z,35.67
2018-10-16T03:55:11.118Z,31.65
2018-10-16T03:57:40.666Z,39.13
2018-10-16T04:00:11.191Z,31.60
2018-10-16T04:02:40.558Z,34.33
2018-10-16T04:05:10.005Z,33.50
2018-10-16T04:07:39.775Z,34.33
2018-10-16T04:10:09.563Z,36.70
2018-10-16T04:12:38.916Z,34.37
2018-10-16T04:15:09.645Z,33.20
2018-10-16T04:17:39.707Z,38.80
2018-10-16T04:20:09.041Z,35.93
2018-10-16T04:22:38.791Z,34.20
2018-10-16T04:25:09.294Z,33.20
2018-10-16T04:27:38.631Z,33.50
2018-10-16T04:30:08.487Z,35.67
2018-10-16T04:32:37.790Z,33.27
2018-10-16T04:35:16.874Z,40.70
2018-10-16T04:37:47.114Z,32.27
2018-10-16T04:40:16.434Z,36.00
2018-10-16T04:42:45.770Z,38.10
2018-10-16T04:45:15.092Z,36.17
2018-10-16T04:47:44.438Z,36.43
2018-10-16T04:50:13.768Z,36.93
2018-10-16T04:52:43.100Z,37.07
2018-10-16T04:55:12.490Z,35.03
2018-10-16T04:57:41.797Z,36.13
2018-10-16T05:00:11.119Z,32.77
2018-10-16T05:02:41.495Z,38.40
2018-10-16T05:05:22.202Z,34.58
2018-10-16T05:07:52.146Z,36.17
2018-10-16T05:10:22.006Z,35.40
2018-10-16T05:12:51.577Z,38.93
2018-10-16T05:15:26.755Z,39.08
2018-10-16T05:17:56.328Z,40.43
2018-10-16T05:20:25.799Z,40.57
2018-10-16T05:22:55.738Z,37.53
2018-10-16T05:25:26.085Z,41.47
2018-10-16T05:27:55.734Z,38.80
2018-10-16T05:30:25.294Z,36.83
2018-10-16T05:32:54.653Z,41.37
2018-10-16T05:35:23.990Z,43.20
2018-10-16T05:37:53.314Z,44.77
2018-10-16T05:40:22.636Z,41.98
2018-10-16T05:42:51.954Z,43.53
2018-10-16T05:45:21.307Z,42.00
2018-10-16T05:47:50.657Z,39.50
2018-10-16T05:50:19.983Z,40.78
2018-10-16T05:52:49.324Z,43.77
2018-10-16T05:55:18.651Z,42.62
2018-10-16T05:57:48.008Z,45.23
2018-10-16T06:00:34.172Z,42.13
2018-10-16T06:03:03.617Z,39.90
2018-10-16T06:05:32.953Z,50.33
2018-10-16T06:08:02.535Z,41.33
2018-10-16T06:10:31.857Z,42.47
2018-10-16T06:13:01.325Z,45.10
2018-10-16T06:15:30.647Z,44.57
2018-10-16T06:17:59.951Z,47.17
2018-10-16T06:20:29.275Z,42.15
2018-10-16T06:22:58.577Z,45.07
2018-10-16T06:25:27.891Z,46.67
2018-10-16T06:27:57.215Z,43.70
2018-10-16T06:30:26.604Z,43.03
2018-10-16T06:32:55.867Z,44.63
2018-10-16T06:35:25.186Z,45.77
2018-10-16T06:37:54.502Z,46.33
2018-10-16T06:40:23.856Z,42.90
2018-10-16T06:42:53.146Z,47.43
2018-10-16T06:45:22.524Z,48.23
2018-10-16T06:47:51.966Z,46.10
2018-10-16T06:50:21.193Z,49.85
2018-10-16T06:52:50.542Z,48.03
2018-10-16T06:55:19.894Z,45.60
2018-10-16T06:57:49.167Z,48.37
2018-10-16T07:00:18.549Z,47.25
2018-10-16T07:02:47.839Z,47.10
2018-10-16T07:05:17.154Z,45.97
2018-10-16T07:07:46.486Z,48.10
2018-10-16T07:10:15.837Z,47.03
2018-10-16T07:12:45.157Z,42.63
2018-10-16T07:15:14.471Z,47.33
2018-10-16T07:17:43.804Z,44.77
2018-10-16T07:20:13.474Z,48.05
2018-10-16T07:22:42.829Z,45.87
2018-10-16T07:25:12.155Z,45.95
2018-10-16T07:27:41.481Z,46.30
2018-10-16T07:30:13.941Z,43.92
2018-10-16T07:32:43.218Z,47.03
2018-10-16T07:35:12.539Z,45.03
2018-10-16T07:37:41.985Z,43.03
2018-10-16T07:40:12.066Z,43.63
2018-10-16T07:42:41.686Z,43.60
2018-10-16T07:45:11.057Z,44.13
2018-10-16T07:47:40.393Z,43.80
2018-10-16T07:50:11.687Z,44.50
2018-10-16T07:52:41.096Z,41.73
2018-10-16T07:55:12.581Z,41.90
2018-10-16T07:57:42.002Z,41.73
2018-10-16T08:00:12.608Z,41.70
2018-10-16T08:02:42.978Z,41.47
2018-10-16T08:05:12.796Z,41.05
2018-10-16T08:07:42.389Z,40.23
2018-10-16T08:10:13.318Z,41.87
2018-10-16T08:12:43.314Z,40.90
2018-10-16T08:15:12.796Z,42.93
2018-10-16T08:17:42.309Z,40.80
2018-10-16T08:20:11.639Z,41.48
2018-10-16T08:22:41.018Z,41.07
2018-10-16T08:25:10.340Z,40.40
2018-10-16T08:27:39.670Z,42.13
2018-10-16T08:30:09.903Z,42.00
2018-10-16T08:32:39.243Z,39.78
2018-10-16T08:35:08.599Z,41.77
2018-10-16T08:39:50.151Z,42.00
2018-10-16T08:43:39.669Z,38.73
2018-10-16T08:46:26.042Z,43.53
2018-10-16T08:49:12.327Z,41.53
2018-10-16T08:51:59.445Z,42.63
2018-10-16T08:55:31.557Z,43.07
2018-10-16T08:58:01.338Z,41.50
2018-10-16T09:00:30.726Z,43.53
2018-10-16T09:03:00.080Z,41.60
2018-10-16T09:05:29.999Z,41.90
2018-10-16T09:07:59.375Z,43.15
2018-10-16T09:10:28.896Z,47.33
2018-10-16T09:12:58.271Z,44.03
2018-10-16T09:15:27.605Z,39.27
2018-10-16T09:17:56.952Z,40.53
2018-10-16T09:20:26.315Z,40.67
2018-10-16T09:22:55.629Z,41.40
2018-10-16T09:25:24.937Z,40.40
2018-10-16T09:27:54.375Z,41.17
2018-10-16T09:30:23.698Z,40.30
2018-10-16T09:32:53.030Z,36.50
2018-10-16T09:35:22.924Z,37.23
2018-10-16T09:37:52.325Z,34.93
2018-10-16T09:40:21.615Z,34.33
2018-10-16T09:42:50.990Z,35.10
2018-10-16T09:45:20.314Z,34.20
2018-10-16T09:47:49.649Z,34.03
2018-10-16T09:50:19.002Z,35.33
2018-10-16T09:52:48.326Z,33.47
2018-10-16T09:55:17.674Z,34.93
2018-10-16T09:57:47.088Z,34.37
2018-10-16T10:00:21.611Z,31.73
2018-10-16T10:02:50.929Z,30.20
2018-10-16T10:05:20.895Z,31.97
2018-10-16T10:07:50.224Z,32.37
2018-10-16T10:10:19.557Z,32.33
2018-10-16T10:12:48.890Z,31.07
2018-10-16T10:17:59.213Z,31.37
2018-10-16T10:20:28.523Z,33.97
2018-10-16T10:22:57.867Z,30.50
2018-10-16T10:25:27.173Z,32.43
2018-10-16T10:27:56.507Z,32.20
2018-10-16T10:30:25.823Z,32.13
2018-10-16T10:32:55.157Z,31.02
2018-10-16T10:35:24.537Z,30.30
2018-10-16T10:37:53.794Z,31.30
2018-10-16T10:40:23.120Z,31.07
2018-10-16T10:42:52.424Z,29.40
2018-10-16T10:45:21.793Z,29.85
2018-10-16T10:47:51.125Z,30.90
2018-10-16T10:50:20.557Z,28.80
2018-10-16T10:52:49.818Z,31.13
2018-10-16T10:55:19.154Z,28.38
2018-10-16T10:57:48.462Z,28.93
2018-10-16T11:00:17.812Z,27.23
2018-10-16T11:02:48.501Z,28.97
2018-10-16T11:05:17.816Z,26.95
2018-10-16T11:07:50.111Z,26.50
2018-10-16T11:10:19.415Z,28.42
2018-10-16T11:12:48.721Z,26.53
2018-10-16T11:15:18.040Z,24.93
2018-10-16T11:17:47.358Z,24.23
2018-10-16T11:20:16.691Z,23.30
2018-10-16T11:22:46.006Z,23.43
2018-10-16T11:25:15.328Z,23.20
2018-10-16T11:27:44.676Z,22.27
2018-10-16T11:30:15.102Z,23.00
2018-10-16T11:32:44.552Z,24.37
2018-10-16T11:35:14.899Z,23.67
2018-10-16T11:37:44.258Z,22.10
2018-10-16T11:40:13.642Z,23.83
2018-10-16T11:42:43.186Z,22.87
2018-10-16T11:45:12.570Z,24.55
2018-10-16T11:47:41.829Z,23.23
2018-10-16T11:50:11.964Z,20.93
2018-10-16T11:52:41.626Z,23.17
2018-10-16T11:55:11.259Z,22.13
2018-10-16T11:57:40.607Z,19.05
2018-10-16T12:00:15.115Z,18.17
2018-10-16T12:02:44.649Z,19.10
2018-10-16T12:05:15.030Z,19.40
2018-10-16T12:07:44.365Z,18.87
2018-10-16T12:10:13.678Z,18.03
2018-10-16T12:12:43.003Z,14.90
2018-10-16T12:15:12.382Z,12.37
2018-10-16T12:19:51.055Z,11.40
2018-10-16T12:22:20.338Z,10.60
2018-10-16T12:24:49.714Z,10.73
2018-10-16T12:27:19.031Z,12.07
2018-10-16T12:29:48.334Z,10.20
2018-10-16T12:32:17.676Z,10.20
2018-10-16T12:34:46.982Z,9.70
2018-10-16T12:37:16.303Z,9.40
2018-10-16T12:39:45.630Z,9.43
2018-10-16T12:42:15.004Z,9.40
2018-10-16T12:44:44.263Z,9.77
2018-10-16T12:47:13.651Z,8.78
2018-10-16T12:49:42.939Z,9.03
2018-10-16T12:52:12.257Z,8.77
2018-10-16T12:54:43.149Z,9.73
2018-10-16T12:57:12.498Z,10.30
2018-10-16T12:59:41.831Z,10.20
2018-10-16T13:02:11.192Z,9.73
2018-10-16T13:04:40.515Z,10.00
2018-10-16T13:07:13.935Z,9.83
2018-10-16T13:09:44.175Z,9.80
2018-10-16T13:12:14.594Z,9.23
2018-10-16T13:14:43.926Z,9.93
2018-10-16T13:17:13.257Z,9.50
2018-10-16T13:19:42.587Z,9.47
2018-10-16T13:22:11.908Z,9.23
2018-10-16T13:24:41.284Z,9.57
2018-10-16T13:27:10.612Z,10.30
2018-10-16T13:29:40.078Z,9.57
2018-10-16T13:32:09.402Z,9.93
2018-10-16T13:34:38.634Z,9.83
2018-10-16T13:37:07.977Z,10.03
2018-10-16T13:39:37.407Z,10.60
2018-10-16T13:42:06.762Z,10.60
2018-10-16T13:44:36.061Z,10.27
2018-10-16T13:47:05.370Z,9.80
2018-10-16T13:49:34.677Z,10.17
2018-10-16T13:52:04.112Z,11.57
2018-10-16T13:54:33.447Z,11.20
2018-10-16T13:57:02.796Z,15.27
2018-10-16T13:59:32.107Z,11.17
2018-10-16T14:02:01.462Z,12.00
2018-10-16T14:04:30.776Z,12.77
2018-10-16T14:07:00.072Z,12.43
2018-10-16T14:09:29.377Z,12.77
2018-10-16T14:11:58.711Z,11.53
2018-10-16T14:14:28.127Z,13.33
2018-10-16T14:16:57.464Z,14.20
2018-10-16T14:19:26.814Z,13.70
2018-10-16T14:21:56.220Z,13.60
2018-10-16T14:24:25.488Z,13.63
2018-10-16T14:26:54.816Z,12.70
2018-10-16T14:29:24.251Z,12.80
2018-10-16T14:31:53.637Z,13.80
2018-10-16T14:34:22.992Z,12.33
2018-10-16T14:36:52.277Z,12.73
2018-10-16T14:39:21.630Z,13.67
2018-10-16T14:41:50.969Z,13.33
2018-10-16T14:44:20.315Z,13.07
2018-10-16T14:46:49.686Z,12.57
2018-10-16T14:49:19.137Z,13.07
2018-10-16T14:51:48.466Z,12.43
2018-10-16T14:54:17.783Z,12.27
2018-10-16T14:56:47.190Z,11.63
2018-10-16T14:59:16.474Z,11.40
2018-10-16T15:01:45.800Z,12.03
2018-10-16T15:04:15.199Z,12.77
2018-10-16T15:06:44.487Z,11.63
2018-10-16T15:09:13.811Z,11.40
2018-10-16T15:11:43.167Z,11.47
2018-10-16T15:14:12.537Z,11.15
2018-10-16T15:16:42.093Z,11.90
2018-10-16T15:19:11.344Z,11.67
2018-10-16T15:21:40.786Z,11.77
2018-10-16T15:24:10.187Z,11.60
2018-10-16T15:26:39.474Z,11.60
2018-10-16T15:29:08.899Z,11.20
2018-10-16T15:31:38.235Z,11.47
2018-10-16T15:34:07.693Z,11.63
2018-10-16T15:36:37.015Z,10.93
2018-10-16T15:39:10.934Z,11.73
2018-10-16T15:41:40.393Z,12.10
2018-10-16T15:44:10.060Z,11.53
2018-10-16T15:46:39.883Z,12.47
2018-10-16T15:49:09.243Z,12.07
2018-10-16T15:51:38.555Z,13.07
2018-10-16T15:54:07.979Z,12.50
2018-10-16T15:56:37.436Z,12.57
2018-10-16T15:59:06.947Z,13.87
2018-10-16T16:01:36.448Z,13.10
2018-10-16T16:04:06.378Z,12.87
2018-10-16T16:06:35.963Z,12.73
2018-10-16T16:09:07.821Z,12.80
2018-10-16T16:11:37.317Z,12.67
2018-10-16T16:14:07.026Z,13.23
2018-10-16T16:16:36.518Z,12.63
2018-10-16T16:19:07.220Z,13.50
2018-10-16T16:21:36.686Z,13.13
2018-10-16T16:24:06.633Z,11.70
2018-10-16T16:26:36.095Z,13.57
2018-10-16T16:29:06.307Z,15.43
2018-10-16T16:31:35.824Z,12.23
2018-10-16T16:34:06.828Z,13.68
2018-10-16T16:36:36.403Z,13.20
2018-10-16T16:39:10.515Z,17.40
2018-10-16T16:41:39.879Z,15.30
2018-10-16T16:44:09.299Z,15.40
2018-10-16T16:46:44.715Z,14.97
2018-10-16T16:49:14.272Z,15.27
2018-10-16T16:51:43.618Z,14.77
2018-10-16T16:54:12.937Z,15.65
2018-10-16T16:56:42.334Z,14.90
2018-10-16T16:59:11.725Z,14.07
2018-10-16T17:01:41.005Z,15.93
2018-10-16T17:04:10.378Z,16.50
2018-10-16T17:06:39.704Z,16.30
2018-10-16T17:09:11.821Z,16.47
2018-10-16T17:11:41.159Z,15.50
2018-10-16T17:14:10.521Z,16.32
2018-10-16T17:16:39.799Z,15.53
2018-10-16T17:19:09.290Z,16.90
2018-10-16T17:21:38.650Z,16.27
2018-10-16T17:24:07.993Z,16.40
2018-10-16T17:26:37.365Z,16.60
2018-10-16T17:29:06.978Z,16.13
2018-10-16T17:31:36.352Z,16.90
2018-10-16T17:34:06.571Z,16.57
2018-10-16T17:36:35.835Z,17.07
2018-10-16T17:39:07.101Z,17.40
2018-10-16T17:41:36.382Z,17.63
2018-10-16T17:44:07.139Z,16.42
2018-10-16T17:46:36.603Z,18.97
2018-10-16T17:49:06.815Z,16.67
2018-10-16T17:51:36.149Z,20.07
2018-10-16T17:54:06.603Z,19.80
2018-10-16T17:56:36.990Z,19.70
2018-10-16T17:59:06.726Z,18.70
2018-10-16T18:01:36.045Z,16.80
2018-10-16T18:04:06.282Z,17.87
2018-10-16T18:06:35.645Z,17.27
2018-10-16T18:09:08.031Z,15.93
2018-10-16T18:11:37.518Z,16.53
2018-10-16T18:14:07.446Z,19.67
2018-10-16T18:16:36.937Z,18.40
2018-10-16T18:19:06.807Z,19.37
2018-10-16T18:21:36.201Z,19.40
2018-10-16T18:24:06.995Z,17.10
2018-10-16T18:26:36.343Z,19.03
2018-10-16T18:29:06.951Z,21.57
2018-10-16T18:31:36.293Z,19.70
2018-10-16T18:34:06.620Z,18.98
2018-10-16T18:36:35.994Z,20.50
2018-10-16T18:39:08.652Z,24.63
2018-10-16T18:41:38.325Z,19.15
2018-10-16T18:44:07.701Z,19.73
2018-10-16T18:46:37.044Z,19.23
2018-10-16T18:49:06.640Z,20.97
2018-10-16T18:51:35.962Z,16.90
2018-10-16T18:54:06.151Z,21.93
2018-10-16T18:56:35.470Z,19.27
2018-10-16T18:59:06.074Z,21.23
2018-10-16T19:01:35.411Z,21.63
2018-10-16T19:04:04.954Z,20.50
2018-10-16T19:06:34.294Z,19.10
2018-10-16T19:09:04.869Z,19.47
2018-10-16T19:11:34.210Z,19.73
2018-10-16T19:14:03.615Z,19.00
2018-10-16T19:16:32.901Z,23.30
2018-10-16T19:19:02.294Z,21.20
2018-10-16T19:21:31.689Z,27.60
2018-10-16T19:24:01.005Z,25.63
2018-10-16T19:26:30.351Z,26.03
2018-10-16T19:28:59.678Z,23.52
2018-10-16T19:31:29.024Z,25.03
2018-10-16T19:34:00.003Z,22.33
2018-10-16T19:36:29.334Z,28.60
2018-10-16T19:38:58.687Z,27.70
2018-10-16T19:41:27.978Z,26.67
2018-10-16T19:43:57.442Z,26.93
2018-10-16T19:46:26.774Z,27.90
2018-10-16T19:48:56.201Z,25.53
2018-10-16T19:51:32.980Z,29.57
2018-10-16T19:54:02.569Z,26.20
2018-10-16T19:56:32.102Z,24.43
2018-10-16T19:59:01.594Z,26.07
2018-10-16T20:01:31.907Z,29.60
2018-10-16T20:04:01.362Z,26.87
2018-10-16T20:06:30.869Z,26.00
2018-10-16T20:09:09.521Z,28.27
2018-10-16T20:11:38.953Z,28.43
2018-10-16T20:14:08.545Z,28.10
2018-10-16T20:16:37.959Z,27.97
2018-10-16T20:19:07.751Z,30.27
2018-10-16T20:21:37.287Z,29.93
2018-10-16T20:24:07.128Z,27.57
2018-10-16T20:26:38.073Z,25.77
2018-10-16T20:29:07.669Z,24.37
2018-10-16T20:34:09.301Z,27.10
2018-10-16T20:36:39.004Z,26.27
2018-10-16T20:39:12.603Z,27.33
2018-10-16T20:41:42.419Z,31.73
2018-10-16T20:44:15.822Z,25.85
2018-10-16T20:46:45.329Z,30.67
2018-10-16T20:49:14.943Z,26.80
2018-10-16T20:51:45.503Z,28.77
2018-10-16T20:54:14.811Z,27.07
2018-10-16T20:56:44.242Z,27.07
2018-10-16T20:59:13.559Z,27.63
2018-10-16T21:01:43.525Z,27.00
2018-10-16T21:04:12.897Z,27.70
2018-10-16T21:06:42.461Z,28.00
2018-10-16T21:09:11.605Z,27.10
2018-10-16T21:11:40.913Z,27.27
2018-10-16T21:14:10.210Z,28.57
2018-10-16T21:16:39.540Z,27.33
2018-10-16T21:19:09.739Z,26.87
2018-10-16T21:21:38.921Z,28.37
2018-10-16T21:24:08.250Z,28.13
2018-10-16T21:26:37.737Z,26.93
2018-10-16T21:29:07.107Z,28.67
2018-10-16T21:31:36.440Z,27.33
2018-10-16T21:34:06.356Z,26.63
2018-10-16T21:36:35.671Z,29.67
2018-10-16T21:39:06.876Z,28.17
2018-10-16T21:41:36.161Z,27.87
2018-10-16T21:44:06.403Z,27.07
2018-10-16T21:46:35.729Z,29.43
2018-10-16T21:49:06.452Z,28.73
2018-10-16T21:51:35.754Z,26.67
2018-10-16T21:54:08.817Z,28.47
2018-10-16T21:56:39.130Z,29.10
2018-10-16T21:59:08.548Z,28.00
2018-10-16T22:01:43.057Z,26.47
2018-10-16T22:04:12.384Z,28.80
2018-10-16T22:06:41.689Z,27.70
2018-10-16T22:09:14.413Z,29.07
2018-10-16T22:11:44.057Z,26.60
2018-10-16T22:14:13.439Z,28.05
2018-10-16T22:16:42.757Z,28.73
2018-10-16T22:19:12.265Z,26.87
2018-10-16T22:21:41.425Z,27.97
2018-10-16T22:24:10.763Z,26.57
2018-10-16T22:26:40.107Z,27.42
2018-10-16T22:29:09.484Z,27.67
2018-10-16T22:31:38.824Z,27.73
2018-10-16T22:34:08.148Z,26.90
2018-10-16T22:36:37.449Z,28.77
2018-10-16T22:39:09.565Z,28.17
2018-10-16T22:41:39.097Z,28.27
2018-10-16T22:44:09.048Z,27.90
2018-10-16T22:46:38.377Z,28.20
2018-10-16T22:49:07.825Z,27.33
2018-10-16T22:51:37.084Z,28.23
2018-10-16T22:54:06.590Z,28.10
2018-10-16T22:56:35.897Z,29.10
2018-10-16T22:59:06.232Z,29.02
2018-10-16T23:01:42.641Z,27.40
2018-10-16T23:04:19.562Z,28.42
2018-10-16T23:06:57.024Z,29.27
2018-10-16T23:09:34.373Z,27.30
2018-10-16T23:12:12.737Z,28.30
2018-10-16T23:14:47.958Z,28.77
2018-10-16T23:17:23.439Z,31.43
2018-10-16T23:20:00.462Z,29.10
2018-10-16T23:22:37.596Z,28.00
2018-10-16T23:25:16.907Z,27.53
2018-10-16T23:27:50.754Z,28.27
2018-10-16T23:30:27.501Z,27.57
2018-10-16T23:33:04.500Z,28.50
2018-10-16T23:35:38.664Z,29.47
2018-10-16T23:38:09.308Z,27.73
2018-10-16T23:40:47.053Z,28.17
2018-10-16T23:43:24.893Z,29.18
2018-10-16T23:46:01.192Z,30.60
2018-10-16T23:48:38.549Z,30.20
2018-10-16T23:51:15.849Z,29.93
2018-10-16T23:53:54.086Z,30.43
2018-10-16T23:56:37.307Z,30.00
2018-10-16T23:59:14.232Z,29.83
